GCHI/VDE METAR and TAF weather

Enter ICAO airport designator
Station Type Date Time Source
GCHI METAR 2020/10/29 17:30 UTC NOAA

GCHI 291730Z 02012KT 330V050 9999 FEW025 SCT050 23/16 Q1019


Station Type Date Time Source
GCHI Decoded METAR 2020/10/29 17:30 UTC NOAA

Hierro / Aeropuerto, Spain (GCHI) 27-49N 017-53W 32M
Oct 29, 2020 - 01:30 PM EDT / 2020.10.29 1730 UTC
Wind: from the NNE (020 degrees) at 14 MPH (12 KT) (direction variable):0
Visibility: greater than 7 mile(s):0
Sky conditions: partly cloudy
Temperature: 73 F (23 C)
Dew Point: 60 F (16 C)
Relative Humidity: 64%
Pressure (altimeter): 30.09 in. Hg (1019 hPa)
ob: GCHI 291730Z 02012KT 330V050 9999 FEW025 SCT050 23/16 Q1019
cycle: 17

Station Type Date Time Source
GCHI TAF 2020/10/29 15:00 UTC NOAA

TAF GCHI 291400Z 2915/3015 03014KT 9999 BKN040 TX25/2915Z TN21/3007Z

Example: see airport list